Time;durP1;ratioP1;P1;durP2;ratioP2;P2;SDS_P1;SDS_P2;PMS_P1;PMS_P2;Temp;Humidity;BMP_temperature;BMP_pressure;BME280_temperature;BME280_humidity;BME280_pressure;Samples;Min_cycle;Max_cycle;Signal;HPM_P1;HPM_P2
2022/07/23 00:00:27;;;;;;;9.00;3.60;;;;;;;23.51;100.00;101110.25;2082671;28;20189;-65
2022/07/23 00:01:28;;;;;;;5.87;3.70;;;;;;;24.35;100.00;101235.28;2082314;28;20223;-65
2022/07/23 00:02:29;;;;;;;7.87;3.70;;;;;;;24.34;100.00;101239.38;2078655;28;20332;-65
2022/07/23 00:03:29;;;;;;;7.07;3.57;;;;;;;24.33;100.00;101231.41;2076455;28;20561;-65
2022/07/23 00:04:30;;;;;;;8.17;3.67;;;;;;;24.30;100.00;101232.44;2081528;28;20181;-65
2022/07/23 00:05:30;;;;;;;6.80;3.73;;;;;;;24.31;100.00;101223.41;2074017;28;20177;-65
2022/07/23 00:06:31;;;;;;;9.27;3.50;;;;;;;24.33;100.00;101231.41;2074593;28;20652;-65
2022/07/23 00:07:31;;;;;;;7.87;3.60;;;;;;;24.33;100.00;101226.53;2079037;28;20665;-65
2022/07/23 00:08:32;;;;;;;8.53;3.70;;;;;;;24.31;100.00;101231.16;2082402;28;20201;-65
2022/07/23 00:09:32;;;;;;;7.57;3.63;;;;;;;24.23;100.00;101232.94;2077786;28;20197;-65
2022/07/23 00:10:33;;;;;;;8.27;3.70;;;;;;;24.20;100.00;101223.41;2078296;28;20185;-65
2022/07/23 00:11:33;;;;;;;7.73;3.50;;;;;;;24.26;100.00;101229.09;2082638;28;20281;-65
2022/07/23 00:12:34;;;;;;;8.67;3.77;;;;;;;23.75;100.00;101155.84;2081604;28;20256;-65
2022/07/23 00:13:35;;;;;;;8.77;3.70;;;;;;;24.26;100.00;101234.75;2074482;28;20181;-65
2022/07/23 00:14:35;;;;;;;7.17;3.93;;;;;;;24.26;100.00;101237.59;2082403;28;20243;-65
2022/07/23 00:15:36;;;;;;;12.53;4.20;;;;;;;24.25;100.00;101231.13;2075540;28;20202;-65
2022/07/23 00:16:36;;;;;;;12.03;3.83;;;;;;;24.26;100.00;101234.75;2080378;28;20185;-65
2022/07/23 00:17:37;;;;;;;13.80;4.20;;;;;;;24.22;100.00;101232.16;2082121;28;20673;-65
2022/07/23 00:18:37;;;;;;;10.27;4.03;;;;;;;24.28;100.00;101230.13;2082623;28;20185;-65
2022/07/23 00:19:38;;;;;;;10.57;4.30;;;;;;;24.27;100.00;101224.97;2081090;28;20207;-65
2022/07/23 00:20:38;;;;;;;8.13;4.27;;;;;;;24.13;100.00;101211.78;2074522;28;20185;-65
2022/07/23 00:21:39;;;;;;;13.20;4.40;;;;;;;23.88;100.00;101161.78;2082041;28;20185;-65
2022/07/23 00:22:54;;;;;;;6.43;4.03;;;;;;;24.01;100.00;101218.72;2089105;28;20192;-65
2022/07/23 00:23:54;;;;;;;7.77;3.63;;;;;;;24.23;100.00;101238.59;2074408;28;20204;-65
2022/07/23 00:24:56;;;;;;;10.60;4.27;;;;;;;24.23;100.00;101239.38;2080617;28;20185;-65
2022/07/23 00:25:57;;;;;;;8.07;3.90;;;;;;;24.24;100.00;101237.31;2079306;28;20197;-65
2022/07/23 00:26:57;;;;;;;10.67;3.90;;;;;;;24.26;100.00;101241.16;2077592;28;20189;-65
2022/07/23 00:27:59;;;;;;;6.50;3.83;;;;;;;24.14;100.00;101216.16;2074268;28;20202;-65
2022/07/23 00:28:59;;;;;;;5.70;3.90;;;;;;;24.23;100.00;101222.38;2074268;28;20606;-65
2022/07/23 00:30:00;;;;;;;9.03;3.60;;;;;;;24.30;100.00;101229.63;2075009;28;20182;-65
2022/07/23 00:31:00;;;;;;;8.60;3.57;;;;;;;24.31;100.00;101237.56;2082718;28;20318;-65
2022/07/23 00:32:01;;;;;;;9.43;3.80;;;;;;;24.29;100.00;101237.31;2082603;28;20276;-65
2022/07/23 00:33:04;;;;;;;7.30;3.70;;;;;;;24.23;100.00;101230.88;2075921;28;20185;-65
2022/07/23 00:34:05;;;;;;;7.60;3.93;;;;;;;24.26;100.00;101232.66;2078712;28;20659;-65
2022/07/23 00:35:05;;;;;;;8.47;3.83;;;;;;;23.93;100.00;101172.38;2081481;28;20618;-65
2022/07/23 00:36:06;;;;;;;10.60;3.60;;;;;;;24.30;100.00;101236.03;2079552;28;20177;-65
2022/07/23 00:37:07;;;;;;;9.90;3.90;;;;;;;24.25;100.00;101231.13;2074821;28;20365;-65
2022/07/23 00:38:12;;;;;;;8.73;3.40;;;;;;;24.30;100.00;101235.28;2078203;28;20181;-65
2022/07/23 00:39:12;;;;;;;7.80;3.50;;;;;;;23.41;100.00;101097.59;2082550;28;20667;-65
2022/07/23 00:40:13;;;;;;;7.87;3.60;;;;;;;24.30;100.00;101226.78;2082247;28;20542;-65
2022/07/23 00:41:14;;;;;;;11.23;3.73;;;;;;;24.30;100.00;101229.63;2075812;28;20189;-65
2022/07/23 00:42:14;;;;;;;7.73;4.10;;;;;;;24.29;100.00;101230.88;2074327;28;20239;-65
2022/07/23 00:43:14;;;;;;;5.90;3.80;;;;;;;24.29;100.00;101234.50;2077911;28;20567;-65
2022/07/23 00:44:24;;;;;;;6.07;3.80;;;;;;;24.29;100.00;101234.50;2079694;28;20856;-65
2022/07/23 00:45:25;;;;;;;5.93;3.70;;;;;;;24.20;100.00;101248.88;2076511;28;20197;-65
2022/07/23 00:46:26;;;;;;;6.57;3.93;;;;;;;24.21;100.00;101230.59;2082379;28;20181;-65
2022/07/23 00:47:27;;;;;;;5.73;3.20;;;;;;;24.26;100.00;101232.66;2082072;28;20208;-65
2022/07/23 00:48:27;;;;;;;7.80;3.83;;;;;;;24.28;100.00;101232.16;2074361;28;20185;-65
2022/07/23 00:49:30;;;;;;;8.07;3.87;;;;;;;24.28;100.00;101235.78;2081056;28;20647;-65
2022/07/23 00:50:30;;;;;;;8.73;3.80;;;;;;;24.24;100.00;101238.09;2076582;28;20189;-65
2022/07/23 00:51:31;;;;;;;8.20;3.97;;;;;;;23.96;100.00;101185.50;2074169;28;20414;-65
2022/07/23 00:52:33;;;;;;;7.10;3.90;;;;;;;24.28;100.00;101235.00;2074033;28;20226;-65
2022/07/23 00:53:34;;;;;;;8.03;3.93;;;;;;;24.28;100.00;101240.66;2073767;28;20180;-65
2022/07/23 00:54:35;;;;;;;7.00;3.50;;;;;;;24.27;100.00;101234.25;2074753;28;20205;-65
2022/07/23 00:55:35;;;;;;;7.67;4.03;;;;;;;24.25;100.00;101236.78;2082338;28;20177;-65
2022/07/23 00:56:37;;;;;;;9.57;4.30;;;;;;;23.50;100.00;101125.69;2074351;28;20276;-65
2022/07/23 00:57:39;;;;;;;7.57;3.70;;;;;;;24.18;100.00;101228.81;2073796;28;20185;-65
2022/07/23 00:58:42;;;;;;;7.17;3.77;;;;;;;23.49;100.00;101126.97;2074287;28;20189;-65
2022/07/23 00:59:43;;;;;;;9.67;4.10;;;;;;;23.37;100.00;101114.03;2073905;28;20217;-65
2022/07/23 01:00:44;;;;;;;6.70;3.63;;;;;;;24.20;100.00;101228.31;2073036;28;20182;-65
2022/07/23 01:01:47;;;;;;;5.93;3.80;;;;;;;24.16;100.00;101239.84;2076931;28;20655;-65
2022/07/23 01:02:48;;;;;;;6.27;3.67;;;;;;;24.04;100.00;101221.31;2079732;28;20188;-65
2022/07/23 01:03:48;;;;;;;9.87;3.77;;;;;;;24.14;100.00;101236.00;2074971;28;20952;-65
2022/07/23 01:04:49;;;;;;;6.47;3.80;;;;;;;24.11;100.00;101225.72;2081829;28;20267;-65
2022/07/23 01:05:49;;;;;;;5.63;3.80;;;;;;;24.12;100.00;101230.88;2082312;28;20212;-65
2022/07/23 01:06:50;;;;;;;6.30;3.87;;;;;;;24.18;100.00;101245.03;2081920;28;20718;-65
2022/07/23 01:07:52;;;;;;;6.63;4.00;;;;;;;24.16;100.00;101239.84;2082099;28;20271;-65
2022/07/23 01:08:54;;;;;;;9.00;4.13;;;;;;;24.14;100.00;101233.16;2082256;28;20192;-65
2022/07/23 01:09:55;;;;;;;5.40;3.60;;;;;;;23.51;100.00;101139.31;2083533;28;20177;-65
2022/07/23 01:10:56;;;;;;;9.20;4.23;;;;;;;23.56;100.00;101152.72;2089854;28;20255;-65
2022/07/23 01:11:57;;;;;;;9.20;3.77;;;;;;;24.16;100.00;101241.94;2081870;28;20173;-65
2022/07/23 01:13:02;;;;;;;8.07;3.90;;;;;;;24.13;100.00;101249.41;2074082;28;20173;-65
2022/07/23 01:14:15;;;;;;;6.87;3.73;;;;;;;24.10;100.00;101250.41;2076871;28;20236;-65
2022/07/23 01:15:15;;;;;;;6.33;3.67;;;;;;;24.09;100.00;101254.53;2081252;28;20185;-65
2022/07/23 01:16:16;;;;;;;7.80;4.00;;;;;;;24.11;100.00;101251.94;2081712;28;20199;-65
2022/07/23 01:17:17;;;;;;;8.07;3.83;;;;;;;24.12;100.00;101252.72;2075473;28;20201;-65
2022/07/23 01:18:18;;;;;;;7.07;3.87;;;;;;;24.15;100.00;101251.72;2074031;28;20243;-65
2022/07/23 01:19:18;;;;;;;6.33;4.40;;;;;;;24.14;100.00;101259.44;2077132;28;20813;-65
2022/07/23 01:20:20;;;;;;;8.37;3.77;;;;;;;24.15;100.00;101254.56;2080201;28;20612;-65
2022/07/23 01:21:21;;;;;;;5.97;3.90;;;;;;;24.13;100.00;101249.41;2073942;28;20272;-65
2022/07/23 01:22:21;;;;;;;6.53;3.77;;;;;;;24.16;100.00;101256.84;2074107;28;20178;-65
2022/07/23 01:23:22;;;;;;;6.60;3.43;;;;;;;24.19;100.00;101260.72;2074085;28;20268;-65
2022/07/23 01:24:22;;;;;;;6.43;4.00;;;;;;;24.16;100.00;101254.03;2073520;28;20239;-65
2022/07/23 01:25:23;;;;;;;7.03;4.03;;;;;;;23.97;100.00;101244.47;2082027;28;20211;-65
2022/07/23 01:26:24;;;;;;;8.63;4.20;;;;;;;24.12;100.00;101261.22;2080927;28;20189;-65
2022/07/23 01:27:24;;;;;;;5.67;3.73;;;;;;;23.94;100.00;101239.81;2087522;28;20240;-65
2022/07/23 01:28:25;;;;;;;6.27;4.17;;;;;;;24.13;100.00;101257.09;2085590;28;20573;-65
2022/07/23 01:29:25;;;;;;;8.63;4.20;;;;;;;24.13;100.00;101257.09;2078188;28;20220;-65
2022/07/23 01:30:26;;;;;;;6.70;4.00;;;;;;;24.14;100.00;101261.47;2076509;28;20260;-65
2022/07/23 01:31:26;;;;;;;8.60;4.40;;;;;;;23.91;100.00;101218.16;2080433;28;20185;-65
2022/07/23 01:32:27;;;;;;;5.50;3.97;;;;;;;24.12;100.00;101264.84;2073785;28;20189;-65
2022/07/23 01:33:27;;;;;;;8.13;3.50;;;;;;;24.10;100.00;101261.72;2073669;28;20182;-64
2022/07/23 01:34:28;;;;;;;6.93;3.97;;;;;;;24.09;100.00;101260.19;2073688;28;20198;-65
2022/07/23 01:35:28;;;;;;;6.83;3.83;;;;;;;24.06;100.00;101257.59;2079777;28;20251;-65
2022/07/23 01:36:29;;;;;;;7.47;4.33;;;;;;;23.97;100.00;101250.13;2076736;28;20200;-65
2022/07/23 01:37:29;;;;;;;6.17;4.00;;;;;;;24.10;100.00;101266.63;2077398;28;20665;-65
2022/07/23 01:38:30;;;;;;;7.03;4.13;;;;;;;24.11;100.00;101262.50;2081719;28;20196;-65
2022/07/23 01:39:30;;;;;;;7.83;4.47;;;;;;;24.11;100.00;101266.09;2080095;28;20228;-65
2022/07/23 01:40:31;;;;;;;8.37;4.43;;;;;;;24.11;100.00;101266.09;2076517;28;20239;-65
2022/07/23 01:41:32;;;;;;;5.87;4.10;;;;;;;24.08;100.00;101264.31;2073841;28;20656;-65
2022/07/23 01:42:33;;;;;;;6.57;4.20;;;;;;;24.12;100.00;101272.56;2081593;28;20860;-65
2022/07/23 01:43:34;;;;;;;6.30;4.13;;;;;;;24.10;100.00;101270.22;2081434;28;20197;-65
2022/07/23 01:44:34;;;;;;;8.27;4.07;;;;;;;24.09;100.00;101267.91;2080821;28;20189;-65
2022/07/23 01:45:35;;;;;;;5.93;4.53;;;;;;;24.02;100.00;101266.34;2081086;28;20219;-65
2022/07/23 01:46:35;;;;;;;7.83;4.60;;;;;;;24.06;100.00;101280.25;2076560;28;20251;-65
2022/07/23 01:47:35;;;;;;;5.83;4.20;;;;;;;24.04;100.00;101277.94;2079735;28;20205;-65
2022/07/23 01:48:36;;;;;;;6.30;4.17;;;;;;;24.00;100.00;101279.47;2073008;28;20572;-65
2022/07/23 01:49:37;;;;;;;6.63;4.43;;;;;;;23.99;100.00;101270.19;2081527;28;20658;-65
2022/07/23 01:50:37;;;;;;;5.80;4.00;;;;;;;24.00;100.00;101285.91;2081947;28;20227;-65
2022/07/23 01:51:59;;;;;;;9.00;4.23;;;;;;;24.00;100.00;101277.41;2081799;28;20199;-65
2022/07/23 01:52:58;;;;;;;8.30;4.30;;;;;;;23.98;100.00;101282.81;2073974;28;20244;-65
2022/07/23 01:53:59;;;;;;;7.17;3.97;;;;;;;23.37;100.00;101188.38;2073328;28;20194;-65
2022/07/23 01:54:59;;;;;;;6.00;4.30;;;;;;;22.93;100.00;101120.25;2073243;28;20216;-65
2022/07/23 01:56:00;;;;;;;8.73;4.10;;;;;;;23.98;100.00;101299.78;2072915;28;20682;-65
2022/07/23 01:57:01;;;;;;;7.20;3.93;;;;;;;23.97;100.00;101288.97;2072541;28;20189;-65
2022/07/23 01:58:01;;;;;;;5.97;4.03;;;;;;;23.85;100.00;101299.44;2075602;28;20173;-65
2022/07/23 01:59:01;;;;;;;7.23;4.57;;;;;;;23.85;100.00;101279.63;2081887;28;20169;-65
2022/07/23 02:00:03;;;;;;;7.27;4.30;;;;;;;23.87;100.00;101282.75;2082009;28;20635;-65
2022/07/23 02:01:03;;;;;;;5.03;4.43;;;;;;;23.75;100.00;101281.13;2073713;28;20190;-65
2022/07/23 02:02:05;;;;;;;7.70;4.40;;;;;;;23.78;100.00;101294.28;2080761;28;20215;-65
2022/07/23 02:03:05;;;;;;;7.37;4.17;;;;;;;23.72;100.00;101287.81;2081900;28;20180;-65
2022/07/23 02:04:06;;;;;;;7.97;4.50;;;;;;;23.72;100.00;101292.69;2081631;28;20674;-65
2022/07/23 02:05:07;;;;;;;6.23;4.30;;;;;;;23.72;100.00;101295.53;2078131;28;20272;-65
2022/07/23 02:06:07;;;;;;;7.80;4.43;;;;;;;23.72;100.00;101296.31;2073655;28;20170;-65
2022/07/23 02:07:08;;;;;;;6.00;4.20;;;;;;;23.74;100.00;101302.22;2074071;28;20251;-65
2022/07/23 02:08:08;;;;;;;9.03;4.63;;;;;;;23.67;100.00;101273.63;2073775;28;20659;-65
2022/07/23 02:09:09;;;;;;;10.63;4.60;;;;;;;23.00;100.00;101176.31;2081779;28;20246;-65
2022/07/23 02:10:09;;;;;;;6.53;4.27;;;;;;;23.79;100.00;101297.88;2081467;28;20196;-65
2022/07/23 02:11:10;;;;;;;7.27;4.17;;;;;;;23.75;100.00;101286.03;2081774;28;20562;-65
2022/07/23 02:12:10;;;;;;;7.60;4.37;;;;;;;23.85;100.00;101296.59;2081305;28;20545;-65
2022/07/23 02:13:11;;;;;;;5.97;4.60;;;;;;;23.82;100.00;101299.69;2079344;28;20238;-65
2022/07/23 02:14:12;;;;;;;6.90;4.20;;;;;;;23.83;100.00;101301.22;2073396;28;20627;-65
2022/07/23 02:15:12;;;;;;;5.07;3.70;;;;;;;23.81;100.00;101290.44;2073231;28;20261;-65
2022/07/23 02:16:13;;;;;;;8.27;4.40;;;;;;;23.83;100.00;101296.34;2081695;28;20208;-65
2022/07/23 02:17:13;;;;;;;5.30;4.30;;;;;;;23.81;100.00;101301.75;2081405;28;20686;-65
2022/07/23 02:18:14;;;;;;;6.77;4.20;;;;;;;23.81;100.00;101306.63;2076207;28;20213;-65
2022/07/23 02:19:15;;;;;;;6.40;4.70;;;;;;;23.82;100.00;101300.47;2072880;28;20335;-65
2022/07/23 02:20:15;;;;;;;5.97;3.80;;;;;;;22.80;100.00;101139.72;2075720;28;20184;-65
2022/07/23 02:21:16;;;;;;;7.03;4.13;;;;;;;23.84;100.00;101305.63;2080611;28;20181;-65
2022/07/23 02:22:16;;;;;;;6.43;4.50;;;;;;;23.84;100.00;101299.97;2073598;28;20655;-65
2022/07/23 02:23:17;;;;;;;5.90;4.13;;;;;;;23.85;100.00;101302.28;2073474;28;20207;-65
2022/07/23 02:24:17;;;;;;;10.93;4.40;;;;;;;23.84;100.00;101306.38;2073477;28;20194;-65
2022/07/23 02:25:18;;;;;;;7.33;4.40;;;;;;;23.71;100.00;101320.22;2073028;28;20197;-65
2022/07/23 02:26:18;;;;;;;5.20;4.17;;;;;;;23.86;100.00;101308.72;2074905;28;20686;-65
2022/07/23 02:27:19;;;;;;;7.57;4.73;;;;;;;23.03;100.00;101195.06;2075708;28;20445;-65
2022/07/23 02:28:19;;;;;;;8.07;4.47;;;;;;;23.74;100.00;101310.72;2080008;28;20183;-65
2022/07/23 02:29:20;;;;;;;9.67;4.33;;;;;;;23.61;100.00;101303.94;2073523;28;20215;-65
2022/07/23 02:30:20;;;;;;;8.37;4.30;;;;;;;23.77;100.00;101312.53;2081089;28;20191;-65
2022/07/23 02:31:21;;;;;;;8.03;4.70;;;;;;;23.73;100.00;101314.81;2088267;28;20661;-65
2022/07/23 02:32:21;;;;;;;6.07;4.33;;;;;;;23.74;100.00;101321.28;2081781;28;20205;-65
2022/07/23 02:33:22;;;;;;;7.13;4.60;;;;;;;23.74;100.00;101316.38;2081308;28;20192;-65
2022/07/23 02:34:22;;;;;;;8.57;5.00;;;;;;;23.71;100.00;101313.78;2081420;28;20188;-65
2022/07/23 02:35:23;;;;;;;10.30;4.80;;;;;;;23.59;100.00;101300.88;2079021;28;20185;-65
2022/07/23 02:36:23;;;;;;;6.93;4.30;;;;;;;23.70;100.00;101326.41;2080612;28;20208;-65
2022/07/23 02:37:24;;;;;;;6.93;4.70;;;;;;;23.73;100.00;101322.53;2081300;28;20181;-65
2022/07/23 02:38:25;;;;;;;8.47;4.73;;;;;;;23.74;100.00;101322.03;2081567;28;20238;-65
2022/07/23 02:39:25;;;;;;;6.47;4.50;;;;;;;23.76;100.00;101327.97;2074544;28;20213;-65
2022/07/23 02:40:25;;;;;;;6.73;4.90;;;;;;;23.78;100.00;101325.41;2073396;28;20181;-65
2022/07/23 02:41:26;;;;;;;6.03;4.30;;;;;;;23.81;100.00;101326.44;2073283;28;20660;-65
2022/07/23 02:42:26;;;;;;;9.70;4.73;;;;;;;23.73;100.00;101317.66;2073313;28;20524;-65
2022/07/23 02:43:27;;;;;;;9.23;4.20;;;;;;;23.80;100.00;101330.56;2072862;28;20577;-65
2022/07/23 02:44:27;;;;;;;10.03;4.83;;;;;;;23.79;100.00;101323.38;2073081;28;20185;-65
2022/07/23 02:45:28;;;;;;;9.47;4.90;;;;;;;23.72;100.00;101318.16;2073027;28;20174;-65
2022/07/23 02:46:28;;;;;;;8.33;4.80;;;;;;;23.80;100.00;101333.41;2081350;28;20647;-65
2022/07/23 02:47:29;;;;;;;6.10;4.33;;;;;;;23.82;100.00;101337.25;2074812;28;20644;-65
2022/07/23 02:48:29;;;;;;;8.20;4.50;;;;;;;23.73;100.00;101328.97;2073205;28;20193;-65
2022/07/23 02:49:30;;;;;;;10.47;4.53;;;;;;;23.30;100.00;101259.56;2076654;28;20189;-65
2022/07/23 02:50:30;;;;;;;7.90;4.37;;;;;;;23.76;100.00;101335.69;2080555;28;20279;-65
2022/07/23 02:51:31;;;;;;;6.60;4.57;;;;;;;23.73;100.00;101336.69;2081228;28;20728;-65
2022/07/23 02:52:31;;;;;;;5.70;4.23;;;;;;;23.60;100.00;101331.47;2081419;28;20565;-65
2022/07/23 02:53:32;;;;;;;7.63;4.20;;;;;;;23.56;100.00;101328.13;2081284;28;20185;-65
2022/07/23 02:54:32;;;;;;;6.70;3.87;;;;;;;23.61;100.00;101326.59;2081136;28;20193;-65
2022/07/23 02:55:33;;;;;;;8.17;4.43;;;;;;;23.05;100.00;101231.31;2074721;28;20714;-65
2022/07/23 02:56:33;;;;;;;9.23;4.60;;;;;;;23.67;100.00;101331.00;2078407;28;20192;-65
2022/07/23 02:57:34;;;;;;;10.73;4.87;;;;;;;23.25;100.00;101273.66;2077882;28;20193;-65
2022/07/23 02:58:34;;;;;;;12.63;5.03;;;;;;;23.71;100.00;101327.94;2074594;28;20184;-65
2022/07/23 02:59:35;;;;;;;11.30;5.17;;;;;;;23.72;100.00;101329.47;2081184;28;20709;-65
2022/07/23 03:00:35;;;;;;;8.30;4.80;;;;;;;22.87;100.00;101198.56;2081426;28;20262;-65
2022/07/23 03:01:36;;;;;;;7.77;4.63;;;;;;;23.76;100.00;101335.69;2081254;28;20193;-65
2022/07/23 03:02:37;;;;;;;8.67;4.70;;;;;;;23.01;100.00;101223.09;2075210;28;20193;-65
2022/07/23 03:03:37;;;;;;;7.57;4.50;;;;;;;23.16;100.00;101251.97;2077896;28;20657;-65
2022/07/23 03:04:38;;;;;;;7.93;4.33;;;;;;;23.77;100.00;101340.06;2080867;28;20193;-65
2022/07/23 03:05:38;;;;;;;7.20;4.03;;;;;;;23.77;100.00;101328.72;2078524;28;20188;-65
2022/07/23 03:06:39;;;;;;;9.63;4.70;;;;;;;23.75;100.00;101339.78;2073043;28;20189;-65
2022/07/23 03:07:39;;;;;;;10.00;4.50;;;;;;;23.73;100.00;101337.47;2079017;28;20235;-65
2022/07/23 03:08:40;;;;;;;9.53;4.63;;;;;;;23.75;100.00;101337.72;2081431;28;20181;-65
2022/07/23 03:09:40;;;;;;;6.90;4.20;;;;;;;23.74;100.00;101332.59;2081320;28;20560;-65
2022/07/23 03:10:41;;;;;;;8.87;4.50;;;;;;;22.52;100.00;101149.25;2075021;28;20272;-65
2022/07/23 03:11:41;;;;;;;7.87;4.30;;;;;;;23.70;100.00;101334.88;2073017;28;20204;-65
2022/07/23 03:12:42;;;;;;;6.60;4.17;;;;;;;23.69;100.00;101336.94;2077174;28;20189;-65
2022/07/23 03:13:43;;;;;;;10.77;4.60;;;;;;;23.67;100.00;101341.53;2078617;28;20185;-65
2022/07/23 03:14:44;;;;;;;11.13;4.30;;;;;;;22.86;100.00;101224.50;2080959;28;20181;-65
2022/07/23 03:15:44;;;;;;;11.43;4.50;;;;;;;23.64;100.00;101343.31;2080187;28;20181;-65
2022/07/23 03:16:45;;;;;;;8.40;4.70;;;;;;;23.64;100.00;101340.50;2073255;28;20173;-65
2022/07/23 03:17:45;;;;;;;13.80;5.50;;;;;;;23.63;100.00;101341.78;2072944;28;20185;-65
2022/07/23 03:18:46;;;;;;;13.63;4.67;;;;;;;22.74;100.00;101206.72;2079421;28;20207;-65
2022/07/23 03:19:46;;;;;;;15.13;5.57;;;;;;;23.61;100.00;101347.19;2076021;28;20248;-65
2022/07/23 03:20:46;;;;;;;18.90;5.60;;;;;;;23.62;100.00;101347.94;2072862;28;20231;-65
2022/07/23 03:21:47;;;;;;;18.30;5.93;;;;;;;23.41;100.00;101315.41;2073331;28;20220;-65
2022/07/23 03:22:47;;;;;;;24.50;6.90;;;;;;;23.59;100.00;101341.25;2073768;28;20727;-65
2022/07/23 03:23:48;;;;;;;23.57;6.53;;;;;;;23.56;100.00;101336.59;2079901;28;20616;-65
2022/07/23 03:24:54;;;;;;;18.60;6.67;;;;;;;23.61;100.00;101337.91;2080874;28;20227;-65
2022/07/23 03:25:55;;;;;;;21.47;6.77;;;;;;;23.56;100.00;101333.00;2075315;28;20179;-65
2022/07/23 03:26:55;;;;;;;13.20;5.63;;;;;;;23.60;100.00;101339.19;2073414;28;20431;-65
2022/07/23 03:27:56;;;;;;;18.23;4.97;;;;;;;23.59;100.00;101344.06;2072880;28;20193;-65
2022/07/23 03:28:56;;;;;;;11.27;4.90;;;;;;;23.56;100.00;101352.78;2073057;28;20224;-65
2022/07/23 03:29:58;;;;;;;12.27;5.17;;;;;;;23.54;100.00;101352.53;2076862;28;20196;-65
2022/07/23 03:30:59;;;;;;;10.23;4.50;;;;;;;23.51;100.00;101359.97;2080989;28;20195;-65
2022/07/23 03:31:59;;;;;;;8.77;4.60;;;;;;;23.47;100.00;101350.16;2079292;28;20408;-65
2022/07/23 03:33:00;;;;;;;9.37;4.60;;;;;;;23.43;100.00;101339.06;2073894;28;20214;-65
2022/07/23 03:34:00;;;;;;;8.33;4.30;;;;;;;23.47;100.00;101345.28;2081022;28;20200;-65
2022/07/23 03:35:01;;;;;;;7.27;4.43;;;;;;;23.47;100.00;101350.16;2080891;28;20684;-65
2022/07/23 03:36:01;;;;;;;8.57;4.13;;;;;;;23.48;100.00;101357.34;2080879;28;20582;-65
2022/07/23 03:37:02;;;;;;;7.47;4.10;;;;;;;23.49;100.00;101356.84;2081006;28;20169;-65
2022/07/23 03:38:02;;;;;;;7.50;4.27;;;;;;;23.46;100.00;101360.72;2080258;28;20193;-65
2022/07/23 03:39:03;;;;;;;7.73;3.80;;;;;;;23.43;100.00;101356.06;2081119;28;20178;-65
2022/07/23 03:40:05;;;;;;;7.77;4.27;;;;;;;22.83;100.00;101268.66;2079672;28;20177;-65
2022/07/23 03:41:05;;;;;;;7.23;4.67;;;;;;;23.27;100.00;101330.47;2080711;28;20189;-65
2022/07/23 03:42:06;;;;;;;9.37;4.33;;;;;;;23.32;100.00;101344.66;2073227;28;20332;-65
2022/07/23 03:43:06;;;;;;;9.53;4.50;;;;;;;23.35;100.00;101354.97;2073036;28;20236;-65
2022/07/23 03:44:07;;;;;;;7.53;4.80;;;;;;;23.33;100.00;101349.03;2078026;28;20224;-65
2022/07/23 03:45:08;;;;;;;9.37;4.43;;;;;;;23.33;100.00;101360.34;2079958;28;20299;-65
2022/07/23 03:46:09;;;;;;;8.13;4.90;;;;;;;23.33;100.00;101362.41;2081173;28;20188;-65
2022/07/23 03:47:10;;;;;;;8.00;4.80;;;;;;;22.80;100.00;101283.03;2079918;28;20177;-65
2022/07/23 03:48:10;;;;;;;8.40;5.60;;;;;;;23.37;100.00;101357.28;2080668;28;20177;-65
2022/07/23 03:49:11;;;;;;;7.50;4.70;;;;;;;23.36;100.00;101352.91;2081230;28;20173;-65
2022/07/23 03:50:11;;;;;;;6.27;4.50;;;;;;;23.30;100.00;101343.63;2080342;28;20201;-65
2022/07/23 03:51:12;;;;;;;7.07;4.67;;;;;;;22.90;100.00;101287.22;2080966;28;20192;-65
2022/07/23 03:52:12;;;;;;;7.10;4.63;;;;;;;23.34;100.00;101359.06;2076015;28;20193;-65
2022/07/23 03:53:13;;;;;;;6.10;4.40;;;;;;;23.32;100.00;101358.00;2077044;28;20188;-65
2022/07/23 03:54:13;;;;;;;11.77;4.17;;;;;;;23.28;100.00;101346.19;2077924;28;20185;-65
2022/07/23 03:55:14;;;;;;;8.67;4.80;;;;;;;23.22;100.00;101357.44;2072384;28;20213;-65
2022/07/23 03:56:15;;;;;;;6.90;4.00;;;;;;;23.20;100.00;101356.38;2073048;28;20256;-65
2022/07/23 03:57:15;;;;;;;6.97;4.20;;;;;;;23.18;100.00;101350.47;2072906;28;20265;-65
2022/07/23 03:58:15;;;;;;;11.10;4.57;;;;;;;23.13;100.00;101354.00;2079321;28;20327;-65
2022/07/23 03:59:16;;;;;;;9.37;4.43;;;;;;;22.46;100.00;101252.94;2080529;28;20715;-65
2022/07/23 04:00:17;;;;;;;8.07;4.40;;;;;;;23.04;100.00;101343.66;2080907;28;20220;-65
2022/07/23 04:01:17;;;;;;;8.87;4.83;;;;;;;23.10;100.00;101347.28;2081002;28;20651;-65
2022/07/23 04:02:18;;;;;;;9.23;4.33;;;;;;;23.17;100.00;101355.31;2078870;28;20327;-65
2022/07/23 04:03:18;;;;;;;6.50;4.33;;;;;;;23.14;100.00;101352.72;2073078;28;20225;-65
2022/07/23 04:04:19;;;;;;;10.17;4.30;;;;;;;23.10;100.00;101366.28;2072889;28;20188;-65
2022/07/23 04:05:19;;;;;;;8.30;4.50;;;;;;;23.06;100.00;101363.69;2079990;28;20180;-65
2022/07/23 04:06:20;;;;;;;7.97;4.50;;;;;;;23.04;100.00;101357.78;2074271;28;20664;-65
2022/07/23 04:07:21;;;;;;;7.27;4.30;;;;;;;23.02;100.00;101359.56;2078241;28;20246;-65
2022/07/23 04:08:22;;;;;;;9.40;4.50;;;;;;;23.02;100.00;101356.72;2076727;28;20193;-65
2022/07/23 04:09:22;;;;;;;7.30;4.40;;;;;;;23.04;100.00;101359.81;2076042;28;20272;-65
2022/07/23 04:10:22;;;;;;;6.93;4.90;;;;;;;23.03;100.00;101361.88;2080701;28;20185;-65
2022/07/23 04:11:23;;;;;;;9.57;4.63;;;;;;;23.08;100.00;101351.91;2081187;28;20177;-65
2022/07/23 04:12:24;;;;;;;7.20;4.37;;;;;;;22.61;100.00;101293.91;2081056;28;20223;-65
2022/07/23 04:13:24;;;;;;;6.30;4.50;;;;;;;22.79;100.00;101338.00;2073828;28;20190;-65
2022/07/23 04:14:25;;;;;;;8.80;4.80;;;;;;;23.05;100.00;101362.16;2078207;28;20196;-65
2022/07/23 04:15:25;;;;;;;9.17;4.70;;;;;;;23.10;100.00;101366.28;2080238;28;20726;-64
2022/07/23 04:16:26;;;;;;;7.00;4.53;;;;;;;23.12;100.00;101358.06;2080768;28;20189;-65
2022/07/23 04:17:27;;;;;;;5.93;4.10;;;;;;;23.10;100.00;101369.13;2080456;28;20181;-64
2022/07/23 04:18:27;;;;;;;8.43;4.43;;;;;;;23.13;100.00;101356.81;2081271;28;20260;-65
2022/07/23 04:19:28;;;;;;;7.77;3.93;;;;;;;23.14;100.00;101366.84;2081037;28;20201;-65
2022/07/23 04:20:28;;;;;;;8.97;4.40;;;;;;;23.12;100.00;101356.03;2080418;28;20276;-65
2022/07/23 04:21:29;;;;;;;10.10;4.43;;;;;;;23.21;100.00;101355.88;2081053;28;20181;-65
2022/07/23 04:22:30;;;;;;;7.30;4.67;;;;;;;23.24;100.00;101371.09;2076212;28;20251;-65
2022/07/23 04:23:30;;;;;;;8.70;4.27;;;;;;;22.50;100.00;101254.28;2072718;28;20185;-65
2022/07/23 04:24:31;;;;;;;9.00;4.43;;;;;;;23.21;100.00;101366.41;2072566;28;20516;-65
2022/07/23 04:25:31;;;;;;;7.53;3.83;;;;;;;;;;2073509;28;20182;-64
2022/07/23 04:26:31;;;;;;;6.57;4.13;;;;;;;23.20;100.00;101364.88;2081056;28;20213;-65
2022/07/23 04:27:33;;;;;;;6.77;4.10;;;;;;;23.17;100.00;101368.66;2072668;28;20245;-65
2022/07/23 04:28:33;;;;;;;8.37;4.40;;;;;;;23.28;100.00;101374.47;2073060;28;20264;-65
2022/07/23 04:29:34;;;;;;;8.17;4.43;;;;;;;23.30;100.00;101369.84;2078532;28;20436;-65
2022/07/23 04:30:34;;;;;;;8.67;4.10;;;;;;;23.29;100.00;101371.09;2076565;28;20197;-65
2022/07/23 04:31:35;;;;;;;7.50;4.43;;;;;;;23.31;100.00;101368.56;2075740;28;20185;-65
2022/07/23 04:32:35;;;;;;;7.23;4.23;;;;;;;22.38;100.00;101227.19;2081064;28;20662;-65
2022/07/23 04:33:36;;;;;;;6.97;4.33;;;;;;;23.24;100.00;101352.03;2080276;28;20567;-65
2022/07/23 04:34:36;;;;;;;6.97;3.90;;;;;;;23.36;100.00;101372.72;2072777;28;20275;-65
2022/07/23 04:35:37;;;;;;;6.23;4.27;;;;;;;23.33;100.00;101366.00;2073708;28;20240;-65
2022/07/23 04:36:37;;;;;;;8.10;4.30;;;;;;;23.38;100.00;101373.00;2074209;28;20229;-65
2022/07/23 04:37:38;;;;;;;6.93;4.20;;;;;;;23.38;100.00;101373.00;2078997;28;20703;-65
2022/07/23 04:38:38;;;;;;;6.77;4.60;;;;;;;23.41;100.00;101372.75;2081794;28;20227;-65
2022/07/23 04:39:39;;;;;;;9.97;4.60;;;;;;;23.46;100.00;101368.41;2081757;28;20205;-65